Time;durP1;ratioP1;P1;durP2;ratioP2;P2;SDS_P1;SDS_P2;PMS_P1;PMS_P2;Temp;Humidity;BMP_temperature;BMP_pressure;BME280_temperature;BME280_humidity;BME280_pressure;Samples;Min_cycle;Max_cycle;Signal;HPM_P1;HPM_P2
2023/06/27 00:00:52;;;;;;;10.10;6.32;;;;;;;-145.63;37.71;38799.34;5063041;28;20409;-69
2023/06/27 00:03:18;;;;;;;7.68;6.88;;;;;;;-145.63;38.12;38850.19;5063265;28;20041;-68
2023/06/27 00:05:44;;;;;;;8.07;6.65;;;;;;;-145.63;37.94;38791.53;5062981;28;20036;-68
2023/06/27 00:08:09;;;;;;;8.07;6.25;;;;;;;-145.63;37.90;38820.88;5063261;28;20033;-68
2023/06/27 00:10:35;;;;;;;9.25;6.88;;;;;;;-145.63;38.16;38773.94;5062825;28;20221;-68
2023/06/27 00:13:00;;;;;;;8.43;6.50;;;;;;;-145.63;37.79;38785.66;5063022;28;20029;-68
2023/06/27 00:15:29;;;;;;;8.88;6.50;;;;;;;-145.63;38.03;38834.56;5061543;28;20032;-71
2023/06/27 00:17:55;;;;;;;9.70;7.13;;;;;;;-145.63;37.88;38789.59;5063071;28;20043;-72
2023/06/27 00:20:21;;;;;;;8.63;6.97;;;;;;;-145.63;37.91;38797.41;5063005;28;20025;-72
2023/06/27 00:22:47;;;;;;;8.40;6.70;;;;;;;-145.63;38.54;38811.09;5062644;28;20024;-72
2023/06/27 00:25:12;;;;;;;8.43;6.45;;;;;;;-145.63;38.44;38838.47;5062797;28;20036;-72
2023/06/27 00:27:38;;;;;;;9.00;6.97;;;;;;;-145.63;38.16;38650.75;5062807;28;20025;-69
2023/06/27 00:30:05;;;;;;;8.98;6.80;;;;;;;-145.63;38.17;38809.13;5062762;28;20029;-71
2023/06/27 00:32:30;;;;;;;9.68;7.05;;;;;;;-145.63;37.79;38813.03;5062743;28;20326;-70
2023/06/27 00:34:56;;;;;;;7.90;6.97;;;;;;;-145.63;38.11;38854.13;5062352;28;20075;-71
2023/06/27 00:37:21;;;;;;;9.23;7.05;;;;;;;-145.63;38.11;38854.13;5062447;28;20135;-72
2023/06/27 00:39:47;;;;;;;7.55;6.35;;;;;;;-145.63;37.97;38859.97;5062482;28;20048;-69
2023/06/27 00:42:12;;;;;;;9.77;6.63;;;;;;;-145.63;37.82;38842.38;5062136;28;20378;-71
2023/06/27 00:44:38;;;;;;;8.65;7.05;;;;;;;-145.63;38.11;38816.97;5062389;28;20033;-71
2023/06/27 00:47:04;;;;;;;10.88;7.30;;;;;;;-145.63;38.01;38824.78;5062210;28;20294;-72
2023/06/27 00:49:30;;;;;;;11.60;7.20;;;;;;;-145.63;37.74;38840.44;5062228;28;20033;-71
2023/06/27 00:51:56;;;;;;;9.15;7.00;;;;;;;-145.63;37.78;38830.66;5066407;28;20092;-71
2023/06/27 00:54:22;;;;;;;7.57;6.68;;;;;;;-145.63;38.08;38830.66;5066594;28;20029;-71
2023/06/27 00:56:53;;;;;;;10.23;6.93;;;;;;;-145.63;38.36;38811.09;5066717;28;20025;-71
2023/06/27 00:59:18;;;;;;;7.72;6.95;;;;;;;-145.63;38.01;38820.88;5066792;28;20033;-69
2023/06/27 01:01:45;;;;;;;7.43;6.40;;;;;;;-145.63;37.90;38848.25;5066509;28;20028;-69
2023/06/27 01:04:11;;;;;;;10.27;7.30;;;;;;;-145.63;38.01;38832.59;5066497;28;20028;-70
2023/06/27 01:06:49;;;;;;;10.40;6.90;;;;;;;-145.63;38.03;38867.81;5065029;28;20067;-72
2023/06/27 01:09:37;;;;;;;8.48;7.22;;;;;;;-145.63;38.25;38850.19;5066285;28;20329;-69
2023/06/27 01:12:28;;;;;;;11.02;6.68;;;;;;;-145.63;38.19;38840.44;5066488;28;20053;-70
2023/06/27 01:14:57;;;;;;;8.60;7.50;;;;;;;-145.63;38.22;38867.81;5065094;28;20032;-69
2023/06/27 01:17:25;;;;;;;8.55;7.75;;;;;;;-145.63;38.71;38844.34;5066382;28;20029;-70
2023/06/27 01:19:52;;;;;;;11.10;8.18;;;;;;;-145.63;38.61;38887.34;5066284;28;20310;-69
2023/06/27 01:22:28;;;;;;;8.98;7.53;;;;;;;-145.63;38.48;38859.97;5067632;28;20029;-71
2023/06/27 01:24:54;;;;;;;8.23;7.43;;;;;;;-145.63;38.85;38875.63;5057210;28;20041;-71
2023/06/27 01:27:19;;;;;;;10.55;8.13;;;;;;;-145.63;38.66;38869.75;5066051;28;20054;-69
2023/06/27 01:29:45;;;;;;;9.82;7.85;;;;;;;-145.63;38.72;38854.13;5066106;28;20028;-69
2023/06/27 01:32:13;;;;;;;11.52;7.88;;;;;;;-145.63;38.74;38842.38;5066045;28;20100;-70
2023/06/27 01:35:03;;;;;;;12.68;7.97;;;;;;;-145.63;39.34;38904.97;5065926;28;20029;-70
2023/06/27 01:37:35;;;;;;;11.32;7.95;;;;;;;-145.63;38.88;38895.19;5066103;28;20096;-69
2023/06/27 01:40:08;;;;;;;8.77;7.88;;;;;;;-145.63;39.47;38951.88;5064504;28;20288;-69
2023/06/27 01:42:46;;;;;;;9.20;7.25;;;;;;;-145.63;39.24;38877.56;5065708;28;20314;-68
2023/06/27 01:45:14;;;;;;;11.55;7.68;;;;;;;-145.63;39.33;38869.75;5065916;28;20257;-68
2023/06/27 01:47:42;;;;;;;12.23;7.88;;;;;;;-145.63;39.71;38899.09;5065699;28;20041;-68
2023/06/27 01:50:12;;;;;;;11.70;8.07;;;;;;;-145.63;39.81;38928.44;5065901;28;20021;-67
2023/06/27 01:52:38;;;;;;;12.45;8.57;;;;;;;-145.63;39.56;38908.88;5065599;28;20336;-69
2023/06/27 01:55:03;;;;;;;12.02;8.43;;;;;;;-145.63;39.85;38910.81;5066614;28;20041;-68
2023/06/27 01:57:30;;;;;;;9.35;8.20;;;;;;;-145.63;40.02;38912.78;5065912;28;20033;-69
2023/06/27 01:59:55;;;;;;;10.30;7.55;;;;;;;-145.63;40.51;38965.56;5065685;28;20338;-68
2023/06/27 02:02:21;;;;;;;11.63;8.00;;;;;;;-145.63;40.66;38926.47;5065682;28;20029;-68
2023/06/27 02:04:47;;;;;;;10.52;7.97;;;;;;;-145.63;40.19;38920.59;5065519;28;20047;-68
2023/06/27 02:07:12;;;;;;;11.93;7.90;;;;;;;-145.63;40.49;38928.44;5065393;28;20044;-68
2023/06/27 02:09:38;;;;;;;11.32;7.68;;;;;;;-145.63;40.37;38947.97;5064164;28;20025;-68
2023/06/27 02:12:04;;;;;;;10.13;7.18;;;;;;;-145.63;40.36;38940.16;5065326;28;20028;-68
2023/06/27 02:14:31;;;;;;;9.57;7.85;;;;;;;-145.63;40.38;38899.09;5065375;28;20162;-68
2023/06/27 02:16:56;;;;;;;11.85;7.70;;;;;;;-145.63;40.47;38934.28;5064983;28;20048;-69
2023/06/27 02:19:23;;;;;;;10.68;7.80;;;;;;;-145.63;40.86;38944.06;5065113;28;20064;-69
2023/06/27 02:21:49;;;;;;;12.40;7.70;;;;;;;-145.63;40.47;38942.13;5063846;28;20071;-68
2023/06/27 02:24:15;;;;;;;9.55;7.38;;;;;;;-145.63;40.60;38944.06;5065164;28;20028;-67
2023/06/27 02:26:41;;;;;;;9.70;7.55;;;;;;;-145.63;40.83;38961.66;5064904;28;20052;-68
2023/06/27 02:29:07;;;;;;;9.60;6.78;;;;;;;-145.63;40.85;38940.16;5063754;28;20326;-68
2023/06/27 02:31:32;;;;;;;12.60;7.30;;;;;;;-145.63;40.48;38903.00;5063575;28;20162;-68
2023/06/27 02:33:59;;;;;;;8.20;7.28;;;;;;;-145.63;40.20;38938.19;5064943;28;20354;-68
2023/06/27 02:36:27;;;;;;;7.75;6.95;;;;;;;-145.63;40.55;38949.94;5063711;28;20029;-69
2023/06/27 02:38:55;;;;;;;9.40;7.72;;;;;;;-145.63;40.69;38903.00;5064696;28;20313;-69
2023/06/27 02:41:24;;;;;;;8.35;7.13;;;;;;;-145.63;40.09;38926.47;5064533;28;20104;-71
2023/06/27 02:43:50;;;;;;;8.95;7.15;;;;;;;-145.63;40.55;38893.22;5064637;28;20037;-69
2023/06/27 02:46:16;;;;;;;8.70;7.50;;;;;;;-145.63;40.06;38887.34;5064606;28;20021;-71
2023/06/27 02:48:42;;;;;;;8.52;6.90;;;;;;;-145.63;40.20;38906.91;5064216;28;20089;-69
2023/06/27 02:51:07;;;;;;;9.13;7.30;;;;;;;-145.63;39.83;38906.91;5064225;28;20041;-69
2023/06/27 02:53:33;;;;;;;7.57;6.30;;;;;;;-145.63;39.78;38863.88;5064516;28;20025;-69
2023/06/27 02:56:02;;;;;;;8.55;6.93;;;;;;;-145.63;39.75;38848.25;5064254;28;20044;-69
2023/06/27 02:58:32;;;;;;;8.32;6.65;;;;;;;-145.63;39.41;38879.53;5062938;28;20036;-71
2023/06/27 03:01:06;;;;;;;10.20;7.00;;;;;;;-145.63;39.54;38816.97;5063696;28;20040;-70
2023/06/27 03:03:32;;;;;;;9.73;6.35;;;;;;;-145.63;39.76;38852.16;5063705;28;20121;-72
2023/06/27 03:06:02;;;;;;;8.80;6.53;;;;;;;-145.63;39.36;38885.41;5064157;28;20020;-70
2023/06/27 03:08:28;;;;;;;8.40;6.47;;;;;;;-145.63;39.97;38832.59;5063998;28;20056;-70
2023/06/27 03:10:54;;;;;;;9.45;6.72;;;;;;;-145.63;39.73;38861.94;5063653;28;20036;-72
2023/06/27 03:13:20;;;;;;;8.55;6.90;;;;;;;-145.63;39.07;38875.63;5063150;28;20047;-71
2023/06/27 03:15:45;;;;;;;8.93;6.15;;;;;;;-145.63;39.11;38859.97;5064158;28;20075;-72
2023/06/27 03:18:11;;;;;;;9.68;6.93;;;;;;;-145.63;39.01;38848.25;5064213;28;20094;-71
2023/06/27 03:20:36;;;;;;;9.07;6.30;;;;;;;-145.63;38.88;38861.94;5064243;28;20020;-71
2023/06/27 03:23:02;;;;;;;9.73;6.35;;;;;;;-145.63;39.37;38863.88;5064538;28;20024;-71
2023/06/27 03:25:27;;;;;;;8.60;6.22;;;;;;;-145.63;39.08;38842.38;5063833;28;20024;-72
2023/06/27 03:27:53;;;;;;;7.95;6.63;;;;;;;-145.63;39.29;38856.06;5063624;28;20025;-73
2023/06/27 03:30:18;;;;;;;8.25;6.10;;;;;;;-145.63;39.26;38846.28;5063623;28;20036;-72
2023/06/27 03:32:44;;;;;;;10.98;6.22;;;;;;;-145.63;39.09;38867.81;5077369;28;20026;-70
2023/06/27 03:35:09;;;;;;;10.30;6.50;;;;;;;-145.63;39.46;38891.28;5066822;28;20056;-71
2023/06/27 03:37:35;;;;;;;9.90;6.05;;;;;;;-145.63;39.35;38844.34;5063644;28;20040;-72
2023/06/27 03:40:02;;;;;;;7.97;6.18;;;;;;;-145.63;39.34;38891.28;5063444;28;20039;-71
2023/06/27 03:42:28;;;;;;;9.75;6.32;;;;;;;-145.63;39.58;38869.75;5063513;28;20025;-71
2023/06/27 03:44:53;;;;;;;6.70;6.00;;;;;;;-145.63;39.27;38877.56;5063101;28;20063;-70
2023/06/27 03:47:19;;;;;;;9.93;6.18;;;;;;;-145.63;39.14;38891.28;5063362;28;20081;-71
2023/06/27 03:49:44;;;;;;;8.52;6.20;;;;;;;-145.63;39.10;38871.72;5063340;28;20020;-71
2023/06/27 03:52:10;;;;;;;6.72;5.93;;;;;;;-145.63;39.50;38840.44;5063349;28;20041;-70
2023/06/27 03:54:35;;;;;;;7.07;5.97;;;;;;;-145.63;38.80;38844.34;5063537;28;20051;-72
2023/06/27 03:57:01;;;;;;;9.20;5.78;;;;;;;-145.63;38.87;38771.97;5063154;28;20044;-72
2023/06/27 03:59:27;;;;;;;9.40;5.90;;;;;;;-145.63;38.39;38754.38;5063284;28;20039;-72
2023/06/27 04:01:52;;;;;;;7.30;5.72;;;;;;;-145.63;37.81;38783.72;5062900;28;20033;-72
2023/06/27 04:04:18;;;;;;;6.47;5.85;;;;;;;-145.63;37.92;38801.31;5063325;28;20055;-72
2023/06/27 04:06:43;;;;;;;7.22;5.43;;;;;;;-145.63;37.88;38744.59;5063061;28;20024;-71
2023/06/27 04:09:09;;;;;;;6.45;5.43;;;;;;;-145.63;37.61;38766.13;5063197;28;20234;-71
2023/06/27 04:11:35;;;;;;;9.98;5.70;;;;;;;-145.63;37.65;38754.38;5063119;28;20234;-72
2023/06/27 04:14:00;;;;;;;10.00;5.63;;;;;;;-145.63;37.80;38750.47;5061560;28;20029;-70
2023/06/27 04:16:27;;;;;;;6.32;5.15;;;;;;;-145.63;37.33;38750.47;5062862;28;20029;-69
2023/06/27 04:18:53;;;;;;;8.90;5.40;;;;;;;-145.63;37.12;38715.28;5062625;28;20048;-69
2023/06/27 04:21:19;;;;;;;7.40;6.03;;;;;;;-145.63;37.28;38734.81;5061758;28;20150;-69
2023/06/27 04:23:44;;;;;;;8.02;5.72;;;;;;;-145.63;37.74;38723.09;5062417;28;20060;-70
2023/06/27 04:26:15;;;;;;;5.53;5.00;;;;;;;-145.63;37.68;38703.53;5062404;28;20025;-69
2023/06/27 04:28:44;;;;;;;8.05;5.45;;;;;;;-145.63;37.70;38680.06;5061506;28;20367;-71
2023/06/27 04:31:10;;;;;;;9.40;5.75;;;;;;;-145.63;37.45;38629.22;5062247;28;20181;-72
2023/06/27 04:33:39;;;;;;;6.80;5.00;;;;;;;-145.63;37.27;38617.50;5063129;28;20084;-71
2023/06/27 04:36:06;;;;;;;7.72;4.93;;;;;;;-145.63;36.47;38644.88;5063359;28;20033;-71
2023/06/27 04:38:40;;;;;;;7.45;4.95;;;;;;;-145.63;36.44;38625.31;5062808;28;20032;-73
2023/06/27 04:41:07;;;;;;;8.43;5.40;;;;;;;-145.63;36.66;38594.03;5061955;28;20025;-74
2023/06/27 04:43:32;;;;;;;6.15;5.20;;;;;;;-145.63;36.33;38572.53;5062176;28;20033;-69
2023/06/27 04:45:59;;;;;;;8.45;4.75;;;;;;;-145.63;36.21;38582.31;5061236;28;20079;-69
2023/06/27 04:48:25;;;;;;;6.82;5.05;;;;;;;-145.63;36.27;38580.34;5062781;28;20175;-70
2023/06/27 04:50:50;;;;;;;6.85;5.63;;;;;;;-145.63;36.23;38539.28;5057086;28;20025;-71
2023/06/27 04:53:19;;;;;;;6.55;4.78;;;;;;;-145.63;35.99;38523.66;5059587;28;20031;-71
2023/06/27 04:55:48;;;;;;;7.82;5.15;;;;;;;-145.63;35.49;38492.34;5062683;28;20032;-69
2023/06/27 04:58:14;;;;;;;8.98;5.30;;;;;;;-145.63;35.51;38496.28;5062173;28;20025;-70
2023/06/27 05:00:39;;;;;;;7.82;5.28;;;;;;;-145.63;34.80;38414.16;5062566;28;20041;-71
2023/06/27 05:03:05;;;;;;;7.40;5.25;;;;;;;-145.63;35.05;38382.88;5062136;28;20349;-68
2023/06/27 05:05:34;;;;;;;7.85;5.20;;;;;;;-145.63;34.88;38396.53;5062390;28;20332;-68
2023/06/27 05:08:06;;;;;;;10.98;4.45;;;;;;;-145.63;34.55;38371.13;5062127;28;20036;-69
2023/06/27 05:10:33;;;;;;;6.68;4.93;;;;;;;-145.63;33.92;38349.63;5062307;28;20029;-71
2023/06/27 05:12:59;;;;;;;5.85;4.50;;;;;;;-145.63;33.55;38328.13;5062033;28;20174;-69
2023/06/27 05:15:25;;;;;;;5.57;4.95;;;;;;;-145.63;33.83;38312.47;5062183;28;20031;-69
2023/06/27 05:17:53;;;;;;;8.00;4.65;;;;;;;-145.63;33.14;38273.38;5062493;28;20294;-69
2023/06/27 05:20:19;;;;;;;7.78;4.40;;;;;;;-145.63;32.27;38281.19;5062208;28;20341;-69
2023/06/27 05:22:45;;;;;;;6.85;4.70;;;;;;;-145.63;32.31;38318.34;5062357;28;20318;-70
2023/06/27 05:25:11;;;;;;;6.43;4.38;;;;;;;-145.63;31.69;38285.09;5062347;28;20031;-70
2023/06/27 05:27:37;;;;;;;5.55;4.22;;;;;;;-145.63;31.67;38320.28;5062287;28;20031;-71
2023/06/27 05:30:03;;;;;;;5.22;4.22;;;;;;;-145.63;31.59;38289.00;5062141;28;20298;-70
2023/06/27 05:32:29;;;;;;;5.70;4.13;;;;;;;-145.63;31.90;38257.72;5061352;28;20025;-71
2023/06/27 05:34:55;;;;;;;5.05;3.53;;;;;;;-145.63;30.46;38304.66;5061943;28;20028;-71
2023/06/27 05:37:21;;;;;;;5.82;4.10;;;;;;;-145.63;30.31;38249.91;5047357;28;20056;-70
2023/06/27 05:39:46;;;;;;;5.07;3.92;;;;;;;-145.63;30.38;38187.34;5065062;28;20482;-72
2023/06/27 05:42:12;;;;;;;9.15;5.90;;;;;;;-145.63;30.44;38253.81;5065886;28;20052;-74
2023/06/27 05:44:37;;;;;;;7.82;4.45;;;;;;;-145.63;30.02;38246.00;5065846;28;20304;-73
2023/06/27 05:47:04;;;;;;;5.57;4.25;;;;;;;-145.63;29.80;38167.78;5065703;28;20037;-72
2023/06/27 05:49:29;;;;;;;3.80;3.30;;;;;;;-145.63;28.50;38195.16;5064798;28;20104;-72
2023/06/27 05:51:55;;;;;;;4.53;4.13;;;;;;;-145.63;28.77;38202.97;5065753;28;20029;-73
2023/06/27 05:54:20;;;;;;;4.32;3.92;;;;;;;-145.63;27.93;38140.41;5065933;28;20040;-73
2023/06/27 05:56:46;;;;;;;4.18;3.78;;;;;;;-145.63;28.54;38093.50;5065727;28;20071;-72
2023/06/27 05:59:11;;;;;;;4.90;4.10;;;;;;;-145.63;28.72;38126.72;5065723;28;20305;-71
2023/06/27 06:01:37;;;;;;;5.07;4.47;;;;;;;-145.63;29.04;38134.53;5065581;28;20096;-71
2023/06/27 06:04:04;;;;;;;4.63;4.22;;;;;;;-145.63;29.03;38124.78;5065561;28;20028;-69
2023/06/27 06:06:30;;;;;;;5.60;3.90;;;;;;;-145.63;28.96;38083.72;5062379;28;20079;-69
2023/06/27 06:08:56;;;;;;;5.00;3.60;;;;;;;-145.63;27.58;38028.97;5053692;28;20044;-70
2023/06/27 06:11:21;;;;;;;4.75;3.55;;;;;;;-145.63;26.81;38089.56;5065167;28;20029;-70
2023/06/27 06:13:47;;;;;;;4.05;3.65;;;;;;;-145.63;26.37;38136.50;5065618;28;20025;-69
2023/06/27 06:16:12;;;;;;;4.53;3.50;;;;;;;-145.63;25.79;38095.44;5047744;28;20025;-69
2023/06/27 06:18:38;;;;;;;4.63;2.97;;;;;;;-145.63;24.35;38136.50;5065113;28;20070;-69
2023/06/27 06:21:03;;;;;;;6.03;3.30;;;;;;;-145.63;24.98;38073.94;5065328;28;20060;-68
2023/06/27 06:23:29;;;;;;;5.95;3.70;;;;;;;-145.63;25.50;38032.88;5065099;28;20033;-70
2023/06/27 06:25:54;;;;;;;3.60;3.30;;;;;;;-145.63;24.75;38003.56;5081477;28;20021;-68
2023/06/27 06:28:20;;;;;;;4.45;3.50;;;;;;;-145.63;24.41;38105.22;5076437;28;20086;-68
2023/06/27 06:30:45;;;;;;;5.47;3.50;;;;;;;-145.63;25.21;38034.84;5064853;28;20029;-68
2023/06/27 06:33:11;;;;;;;4.95;3.38;;;;;;;-145.63;24.82;38003.56;5064911;28;20031;-68
2023/06/27 06:35:36;;;;;;;4.20;3.80;;;;;;;-145.63;25.13;37987.91;5064962;28;20035;-67
2023/06/27 06:38:02;;;;;;;3.92;3.53;;;;;;;-145.63;24.57;37974.22;5064768;28;20028;-68
2023/06/27 06:40:29;;;;;;;3.47;3.17;;;;;;;-145.63;24.92;38048.53;5063772;28;20040;-69
2023/06/27 06:42:54;;;;;;;5.13;3.80;;;;;;;-145.63;24.92;38118.91;5064997;28;20048;-68
2023/06/27 06:45:20;;;;;;;5.43;3.50;;;;;;;-145.63;24.79;38148.22;5064795;28;20044;-68
2023/06/27 06:47:45;;;;;;;4.95;3.28;;;;;;;-145.63;24.45;38154.09;5063806;28;20281;-68
2023/06/27 06:50:11;;;;;;;4.07;3.08;;;;;;;-145.63;24.21;38058.28;5063291;28;20020;-67
2023/06/27 06:52:37;;;;;;;3.22;2.92;;;;;;;-145.63;24.08;38136.50;5064695;28;20135;-67
2023/06/27 06:55:02;;;;;;;3.13;2.83;;;;;;;-145.63;22.99;38216.66;5064496;28;20321;-68
2023/06/27 06:57:28;;;;;;;9.70;3.35;;;;;;;-145.63;23.29;38216.66;5064530;28;20044;-69
2023/06/27 06:59:54;;;;;;;3.55;3.20;;;;;;;-145.63;23.75;38169.75;5064444;28;20025;-70
2023/06/27 07:02:19;;;;;;;4.45;3.38;;;;;;;-145.63;24.38;38159.97;5064585;28;20245;-69
2023/06/27 07:04:45;;;;;;;5.93;3.88;;;;;;;-145.63;24.68;38187.34;5064345;28;20036;-69
2023/06/27 07:07:11;;;;;;;4.22;3.83;;;;;;;-145.63;25.16;38199.06;5064554;28;20020;-70
2023/06/27 07:09:36;;;;;;;6.05;3.85;;;;;;;-145.63;25.67;38210.81;5064135;28;20039;-68
2023/06/27 07:12:02;;;;;;;8.77;3.75;;;;;;;-145.63;26.15;38236.22;5064089;28;20033;-67
2023/06/27 07:14:27;;;;;;;6.47;3.50;;;;;;;-145.63;25.99;38251.84;5063981;28;20088;-70
2023/06/27 07:16:53;;;;;;;4.45;3.50;;;;;;;-145.63;26.29;38202.97;5059526;28;20040;-70
2023/06/27 07:19:19;;;;;;;3.92;3.50;;;;;;;-145.63;26.69;38333.97;5062910;28;20127;-69
2023/06/27 07:21:44;;;;;;;4.45;3.60;;;;;;;-145.63;26.80;38285.09;5060907;28;20306;-70
2023/06/27 07:24:10;;;;;;;4.20;3.65;;;;;;;-145.63;26.80;38281.19;5064406;28;20222;-68
2023/06/27 07:26:35;;;;;;;4.55;3.45;;;;;;;-145.63;27.10;38300.75;5064016;28;20325;-69
2023/06/27 07:29:01;;;;;;;5.35;3.58;;;;;;;-145.63;26.87;38308.56;5063689;28;20041;-69
2023/06/27 07:31:27;;;;;;;5.15;4.10;;;;;;;-145.63;27.02;38169.75;5064000;28;20092;-70
2023/06/27 07:33:53;;;;;;;6.10;4.15;;;;;;;-145.63;27.30;38328.13;5063476;28;20032;-68
2023/06/27 07:36:19;;;;;;;4.20;3.33;;;;;;;-145.63;27.42;38281.19;5064050;28;20021;-69
2023/06/27 07:38:44;;;;;;;7.75;4.05;;;;;;;-145.63;27.77;38287.06;5061839;28;20205;-68
2023/06/27 07:41:10;;;;;;;5.00;3.80;;;;;;;-145.63;27.33;38296.81;5052450;28;20025;-68
2023/06/27 07:43:35;;;;;;;3.63;3.33;;;;;;;-145.63;26.38;38277.28;5062395;28;20310;-68
2023/06/27 07:46:01;;;;;;;4.50;4.10;;;;;;;-145.63;25.73;38238.16;5063158;28;20025;-67
2023/06/27 07:48:26;;;;;;;3.65;3.35;;;;;;;-145.63;26.05;38306.59;5062618;28;20075;-69
2023/06/27 07:50:52;;;;;;;3.58;3.28;;;;;;;-145.63;25.79;38154.09;5063084;28;20332;-69
2023/06/27 07:53:17;;;;;;;3.83;3.42;;;;;;;-145.63;25.44;37862.78;5062195;28;20047;-68
2023/06/27 07:55:43;;;;;;;5.13;3.55;;;;;;;-145.63;25.51;38062.22;5063364;28;20057;-68
2023/06/27 07:58:09;;;;;;;4.03;3.65;;;;;;;-145.63;25.39;38058.28;5063445;28;20232;-68
2023/06/27 08:00:35;;;;;;;6.53;3.50;;;;;;;-145.63;25.67;38060.25;5061631;28;20229;-67
2023/06/27 08:03:00;;;;;;;3.50;3.20;;;;;;;-145.63;25.40;38167.78;5062007;28;20043;-68
2023/06/27 08:05:28;;;;;;;4.97;3.63;;;;;;;-145.63;25.74;38210.81;5063451;28;20028;-67
2023/06/27 08:07:54;;;;;;;4.38;3.72;;;;;;;-145.63;25.79;38202.97;5063036;28;20052;-66
2023/06/27 08:10:19;;;;;;;5.68;3.90;;;;;;;-145.63;25.15;38163.88;5062133;28;20032;-68
2023/06/27 08:12:45;;;;;;;4.10;3.67;;;;;;;-145.63;25.57;38116.94;5061843;28;20033;-69
2023/06/27 08:15:10;;;;;;;4.30;3.80;;;;;;;-145.63;24.65;38081.75;5063404;28;20021;-68
2023/06/27 08:17:36;;;;;;;4.72;4.15;;;;;;;-145.63;24.77;38023.09;5062808;28;20032;-67
2023/06/27 08:20:02;;;;;;;4.05;3.58;;;;;;;-145.63;24.98;38007.47;5062568;28;20025;-68
2023/06/27 08:22:29;;;;;;;5.13;3.60;;;;;;;-145.63;23.78;38062.22;5062848;28;20071;-68
2023/06/27 08:24:54;;;;;;;4.32;3.55;;;;;;;-145.63;24.16;38019.19;5062402;28;20025;-68
2023/06/27 08:27:20;;;;;;;4.20;3.80;;;;;;;-145.63;24.03;38028.97;5061328;28;20017;-68
2023/06/27 08:29:45;;;;;;;5.15;3.83;;;;;;;-145.63;24.02;37987.91;5062643;28;20409;-67
2023/06/27 08:32:11;;;;;;;3.83;3.42;;;;;;;-145.63;23.61;37982.03;5062791;28;20035;-68
2023/06/27 08:34:38;;;;;;;4.15;3.72;;;;;;;-145.63;23.24;37995.72;5061798;28;20040;-68
2023/06/27 08:37:05;;;;;;;4.32;3.70;;;;;;;-145.63;23.78;37982.03;5062608;28;20417;-67
2023/06/27 08:39:30;;;;;;;4.20;3.80;;;;;;;-145.63;23.33;38007.47;5062996;28;20096;-68
2023/06/27 08:41:57;;;;;;;4.25;3.85;;;;;;;-145.63;23.59;38077.84;5062463;28;20032;-67
2023/06/27 08:44:22;;;;;;;5.25;3.60;;;;;;;-145.63;23.82;38238.16;5062785;28;20039;-69
2023/06/27 08:46:50;;;;;;;5.65;3.78;;;;;;;-145.63;23.49;38126.72;5061110;28;20088;-67
2023/06/27 08:49:21;;;;;;;4.45;3.83;;;;;;;-145.63;23.82;38111.09;5062860;28;20225;-68
2023/06/27 08:51:52;;;;;;;4.57;3.50;;;;;;;-145.63;23.35;38113.03;5062407;28;20083;-67
2023/06/27 08:54:32;;;;;;;6.85;4.45;;;;;;;-145.63;23.47;38093.50;5062701;28;20094;-65
2023/06/27 08:57:00;;;;;;;4.25;3.85;;;;;;;-145.63;23.47;38081.75;5058272;28;20167;-67
2023/06/27 08:59:30;;;;;;;4.82;4.35;;;;;;;-145.63;22.98;37999.66;5059240;28;20045;-68
2023/06/27 09:01:57;;;;;;;5.95;3.60;;;;;;;-145.63;23.28;38034.84;5062764;28;20154;-66
2023/06/27 09:04:23;;;;;;;4.20;3.80;;;;;;;-145.63;23.30;37991.81;5062387;28;20029;-67
2023/06/27 09:06:48;;;;;;;4.32;3.75;;;;;;;-145.63;22.31;38011.38;5061610;28;20040;-66
2023/06/27 09:09:15;;;;;;;3.65;3.35;;;;;;;-145.63;23.16;37997.69;5062245;28;20056;-66
2023/06/27 09:11:42;;;;;;;4.30;3.90;;;;;;;-145.63;22.45;38066.13;5063579;28;20075;-67
2023/06/27 09:14:08;;;;;;;3.50;3.20;;;;;;;-145.63;21.98;37970.31;5066251;28;20032;-67
2023/06/27 09:16:34;;;;;;;3.90;3.60;;;;;;;-145.63;22.59;38038.75;5066655;28;20029;-66
2023/06/27 09:19:00;;;;;;;4.18;3.65;;;;;;;-145.63;22.51;37968.38;5066297;28;20082;-67
2023/06/27 09:21:26;;;;;;;4.00;3.60;;;;;;;-145.63;21.79;37919.47;5066451;28;20052;-67
2023/06/27 09:23:53;;;;;;;4.35;3.83;;;;;;;-145.63;21.98;37853.00;5052889;28;20029;-66
2023/06/27 09:26:18;;;;;;;5.25;3.75;;;;;;;-145.63;22.15;37767.00;5057536;28;20036;-66
2023/06/27 09:28:47;;;;;;;4.97;3.67;;;;;;;-145.63;21.44;37870.59;5056287;28;20265;-65
2023/06/27 09:31:13;;;;;;;4.30;3.40;;;;;;;-145.63;21.72;37794.38;5054569;28;20025;-66
2023/06/27 09:33:44;;;;;;;3.85;3.45;;;;;;;-145.63;21.83;37731.81;5057045;28;20071;-66
2023/06/27 09:36:11;;;;;;;4.32;3.40;;;;;;;-145.63;21.87;37765.03;5055572;28;20021;-67
2023/06/27 09:38:37;;;;;;;4.05;3.70;;;;;;;-145.63;21.81;37944.91;5052033;28;20248;-68
2023/06/27 09:41:06;;;;;;;4.30;3.90;;;;;;;-145.63;22.15;37989.88;5057520;28;20114;-68
2023/06/27 09:43:35;;;;;;;4.35;3.65;;;;;;;-145.63;21.80;37935.13;5065906;28;20028;-67
2023/06/27 09:46:01;;;;;;;4.78;3.35;;;;;;;-145.63;22.01;37921.44;5065562;28;20032;-67
2023/06/27 09:48:29;;;;;;;5.18;3.85;;;;;;;-145.63;22.02;37761.13;5065901;28;20112;-66
2023/06/27 09:50:59;;;;;;;3.95;3.55;;;;;;;-145.63;21.83;37815.88;5065829;28;20079;-66
2023/06/27 09:53:25;;;;;;;4.18;3.78;;;;;;;-145.63;21.35;37811.97;5065482;28;20064;-68
2023/06/27 09:55:56;;;;;;;4.50;4.10;;;;;;;-145.63;21.75;37894.06;5064447;28;20025;-66
2023/06/27 09:58:32;;;;;;;4.43;4.03;;;;;;;-145.63;21.93;37673.16;5065733;28;20033;-66
2023/06/27 10:01:07;;;;;;;5.90;4.10;;;;;;;-145.63;22.23;37815.88;5065532;28;20135;-67
2023/06/27 10:03:36;;;;;;;6.07;4.13;;;;;;;-145.63;21.89;37792.41;5065748;28;20028;-68
2023/06/27 10:06:02;;;;;;;3.95;3.55;;;;;;;-145.63;21.64;37806.09;5065859;28;20025;-67
2023/06/27 10:08:28;;;;;;;4.07;3.70;;;;;;;-145.63;21.15;37847.16;5065975;28;20309;-68
2023/06/27 10:10:57;;;;;;;5.28;3.85;;;;;;;-145.63;21.98;37835.41;5059240;28;20029;-67
2023/06/27 10:13:24;;;;;;;4.65;4.25;;;;;;;-145.63;22.19;37835.41;5051391;28;20052;-66
2023/06/27 10:15:49;;;;;;;4.47;3.58;;;;;;;-145.63;21.78;37835.41;5065104;28;20210;-65
2023/06/27 10:18:15;;;;;;;4.63;4.22;;;;;;;-145.63;22.25;37897.97;5056058;28;20025;-66
2023/06/27 10:20:41;;;;;;;4.57;4.05;;;;;;;-145.63;22.08;37851.06;5064830;28;20052;-66
2023/06/27 10:23:08;;;;;;;5.93;4.38;;;;;;;-145.63;21.72;37835.41;5063862;28;20029;-67
2023/06/27 10:25:34;;;;;;;4.78;4.38;;;;;;;-145.63;21.74;37747.44;5065026;28;20029;-67
2023/06/27 10:28:13;;;;;;;5.82;3.85;;;;;;;-145.63;21.83;37817.81;5064767;28;20039;-69
2023/06/27 10:30:44;;;;;;;4.25;3.70;;;;;;;-145.63;21.92;37741.56;5070374;28;20020;-66
2023/06/27 10:33:20;;;;;;;4.43;3.92;;;;;;;-145.63;22.10;37886.25;5064846;28;20088;-69
2023/06/27 10:35:51;;;;;;;6.05;4.00;;;;;;;-145.63;22.49;37913.63;5057840;28;20033;-66
2023/06/27 10:38:18;;;;;;;6.72;4.15;;;;;;;-145.63;22.66;37995.72;5059008;28;20424;-68
2023/06/27 10:41:04;;;;;;;6.05;3.83;;;;;;;-145.63;22.47;37956.63;5056248;28;20060;-67
2023/06/27 10:43:45;;;;;;;6.78;4.28;;;;;;;-145.63;22.68;37966.41;5061417;28;20062;-68
2023/06/27 10:46:23;;;;;;;3.90;3.60;;;;;;;-145.63;22.73;37925.34;5064042;28;20036;-68
2023/06/27 10:48:57;;;;;;;6.38;4.20;;;;;;;-145.63;22.62;37503.09;5064590;28;20108;-68
2023/06/27 10:51:32;;;;;;;5.82;4.05;;;;;;;-145.63;22.77;37913.63;5064500;28;20131;-67
2023/06/27 10:54:12;;;;;;;5.13;4.00;;;;;;;-145.63;21.78;37907.75;5064557;28;20055;-68
2023/06/27 10:56:43;;;;;;;4.00;3.60;;;;;;;-145.63;22.40;37878.44;5064785;28;20035;-68
2023/06/27 10:59:23;;;;;;;4.22;3.83;;;;;;;-145.63;22.38;37925.34;5064895;28;20032;-69
2023/06/27 11:01:53;;;;;;;5.20;4.07;;;;;;;-145.63;22.15;37911.66;5064507;28;20123;-67
2023/06/27 11:04:26;;;;;;;6.50;4.07;;;;;;;-145.63;22.24;37987.91;5064474;28;20067;-69
2023/06/27 11:07:02;;;;;;;5.50;3.90;;;;;;;-145.63;22.29;37972.28;5064448;28;20052;-67
2023/06/27 11:09:29;;;;;;;4.57;4.05;;;;;;;-145.63;22.57;37944.91;5064396;28;20341;-68
2023/06/27 11:12:21;;;;;;;7.78;4.40;;;;;;;-145.63;22.23;38089.56;5064170;28;20194;-68
2023/06/27 11:14:51;;;;;;;4.38;3.97;;;;;;;-145.63;21.80;38007.47;5061208;28;20083;-68
2023/06/27 11:17:17;;;;;;;5.13;4.20;;;;;;;-145.63;22.00;38038.75;5064277;28;20029;-68